createdAt,value
2022-12-08T00:00:43.878Z,7.1
2022-12-08T00:01:52.518Z,6.5
2022-12-08T00:03:00.889Z,6.5
2022-12-08T00:04:09.117Z,6.5
2022-12-08T00:05:17.673Z,8.3
2022-12-08T00:06:26.045Z,8.3
2022-12-08T00:07:34.397Z,8.3
2022-12-08T00:08:42.945Z,7.8
2022-12-08T00:09:51.342Z,7.8
2022-12-08T00:10:59.686Z,7.8
2022-12-08T00:12:08.241Z,7.7
2022-12-08T00:13:16.633Z,7.7
2022-12-08T00:14:24.967Z,7.7
2022-12-08T00:15:33.526Z,9
2022-12-08T00:16:41.931Z,9
2022-12-08T00:17:50.272Z,9
2022-12-08T00:18:58.871Z,9.3
2022-12-08T00:20:07.223Z,9.3
2022-12-08T00:21:15.559Z,9.3
2022-12-08T00:22:24.157Z,9.1
2022-12-08T00:23:32.484Z,9.1
2022-12-08T00:24:40.866Z,9.1
2022-12-08T00:25:49.414Z,9.2
2022-12-08T00:26:57.768Z,9.2
2022-12-08T00:28:06.110Z,9.2
2022-12-08T00:29:17.467Z,8.7
2022-12-08T00:30:23.015Z,8.7
2022-12-08T00:31:31.406Z,8.7
2022-12-08T00:32:39.945Z,8.2
2022-12-08T00:33:48.304Z,8.2
2022-12-08T00:34:56.659Z,8.2
2022-12-08T00:36:05.210Z,8.1
2022-12-08T00:37:13.573Z,8.1
2022-12-08T00:38:21.957Z,8.1
2022-12-08T00:39:30.528Z,8.3
2022-12-08T00:40:38.881Z,8.3
2022-12-08T00:41:47.222Z,8.3
2022-12-08T00:42:55.793Z,8
2022-12-08T00:44:04.125Z,8
2022-12-08T00:45:12.491Z,8
2022-12-08T00:46:21.092Z,7.9
2022-12-08T00:47:29.405Z,7.9
2022-12-08T00:48:37.765Z,7.9
2022-12-08T00:49:46.321Z,10.3
2022-12-08T00:50:54.692Z,10.3
2022-12-08T00:52:03.065Z,10.3
2022-12-08T00:53:11.624Z,9.2
2022-12-08T00:54:19.987Z,9.2
2022-12-08T00:55:28.307Z,9.2
2022-12-08T00:56:36.877Z,8.9
2022-12-08T00:57:45.240Z,8.9
2022-12-08T00:58:53.584Z,8.9
2022-12-08T01:00:02.509Z,9.1
2022-12-08T01:01:10.519Z,9.1
2022-12-08T01:02:18.831Z,9.1
2022-12-08T01:03:27.452Z,10.1
2022-12-08T01:04:35.759Z,10.1
2022-12-08T01:05:44.113Z,10.1
2022-12-08T01:06:52.668Z,8.3
2022-12-08T01:08:01.058Z,8.3
2022-12-08T01:09:09.379Z,8.3
2022-12-08T01:10:17.989Z,8.2
2022-12-08T01:11:26.313Z,8.2
2022-12-08T01:12:34.647Z,8.2
2022-12-08T01:13:43.220Z,7.5
2022-12-08T01:14:51.570Z,7.5
2022-12-08T01:15:59.928Z,7.5
2022-12-08T01:17:08.567Z,7
2022-12-08T01:18:16.875Z,7
2022-12-08T01:19:25.218Z,7
2022-12-08T01:20:33.783Z,9.7
2022-12-08T01:21:42.132Z,9.7
2022-12-08T01:22:50.498Z,9.7
2022-12-08T01:23:59.053Z,6.7
2022-12-08T01:25:07.400Z,6.7
2022-12-08T01:26:15.767Z,6.7
2022-12-08T01:27:24.323Z,6.4
2022-12-08T01:28:32.686Z,6.4
2022-12-08T01:29:41.031Z,6.4
2022-12-08T01:30:49.656Z,7.2
2022-12-08T01:31:57.923Z,7.2
2022-12-08T01:33:06.283Z,7.2
2022-12-08T01:34:14.838Z,7.2
2022-12-08T01:35:23.184Z,7.2
2022-12-08T01:36:31.529Z,7.2
2022-12-08T01:37:40.090Z,6.8
2022-12-08T01:38:48.444Z,6.8
2022-12-08T01:39:56.783Z,6.8
2022-12-08T01:41:05.361Z,6.7
2022-12-08T01:42:13.743Z,6.7
2022-12-08T01:43:22.071Z,6.7
2022-12-08T01:44:30.628Z,6.5
2022-12-08T01:45:39.012Z,6.5
2022-12-08T01:46:47.314Z,6.5
2022-12-08T01:47:55.922Z,5
2022-12-08T01:49:04.208Z,5
2022-12-08T01:50:12.557Z,5
2022-12-08T01:51:21.136Z,5.5
2022-12-08T01:52:29.478Z,5.5
2022-12-08T01:53:37.854Z,5.5
2022-12-08T01:54:46.408Z,5.4
2022-12-08T01:55:54.794Z,5.4
2022-12-08T01:57:03.121Z,5.4
2022-12-08T01:58:11.724Z,4.6
2022-12-08T01:59:20.046Z,4.6
2022-12-08T02:00:28.375Z,4.6
2022-12-08T02:01:36.987Z,3.7
2022-12-08T02:02:45.348Z,3.7
2022-12-08T02:03:53.647Z,3.7
2022-12-08T02:05:02.220Z,4.4
2022-12-08T02:06:10.567Z,4.4
2022-12-08T02:07:18.916Z,4.4
2022-12-08T02:08:27.507Z,3.4
2022-12-08T02:09:35.826Z,3.4
2022-12-08T02:10:44.168Z,3.4
2022-12-08T02:11:52.759Z,3.5
2022-12-08T02:13:01.119Z,3.5
2022-12-08T02:14:09.473Z,3.5
2022-12-08T02:15:18.028Z,3.3
2022-12-08T02:16:26.491Z,3.3
2022-12-08T02:17:34.777Z,3.3
2022-12-08T02:18:43.322Z,2.8
2022-12-08T02:19:51.676Z,2.8
2022-12-08T02:21:00.065Z,2.8
2022-12-08T02:22:08.604Z,2.4
2022-12-08T02:23:16.979Z,2.4
2022-12-08T02:24:25.318Z,2.4
2022-12-08T02:25:33.910Z,2.5
2022-12-08T02:26:42.237Z,2.5
2022-12-08T02:27:50.607Z,2.5
2022-12-08T02:28:59.157Z,2.8
2022-12-08T02:30:07.640Z,2.8
2022-12-08T02:31:15.950Z,2.8
2022-12-08T02:32:24.429Z,2.4
2022-12-08T02:33:32.828Z,2.4
2022-12-08T02:34:41.184Z,2.4
2022-12-08T02:35:49.732Z,2.5
2022-12-08T02:36:58.072Z,2.5
2022-12-08T02:38:06.429Z,2.5
2022-12-08T02:39:14.993Z,2.6
2022-12-08T02:40:23.393Z,2.6
2022-12-08T02:41:31.757Z,2.6
2022-12-08T02:42:40.311Z,2.4
2022-12-08T02:43:48.660Z,2.4
2022-12-08T02:44:57.016Z,2.4
2022-12-08T02:46:05.627Z,3
2022-12-08T02:47:13.921Z,3
2022-12-08T02:48:22.269Z,3
2022-12-08T02:49:30.828Z,2.9
2022-12-08T02:50:39.184Z,2.9
2022-12-08T02:51:47.534Z,2.9
2022-12-08T02:52:56.123Z,3.4
2022-12-08T02:54:04.481Z,3.4
2022-12-08T02:55:12.829Z,3.4
2022-12-08T02:56:21.393Z,3.3
2022-12-08T02:57:29.769Z,3.3
2022-12-08T02:58:38.138Z,3.3
2022-12-08T02:59:46.681Z,3.8
2022-12-08T03:00:55.078Z,3.8
2022-12-08T03:02:03.519Z,3.8
2022-12-08T03:03:12.040Z,4.2
2022-12-08T03:04:20.321Z,4.2
2022-12-08T03:05:28.658Z,4.2
2022-12-08T03:06:37.226Z,5.7
2022-12-08T03:07:45.655Z,5.7
2022-12-08T03:08:53.957Z,5.7
2022-12-08T03:10:02.999Z,3.6
2022-12-08T03:11:10.898Z,3.6
2022-12-08T03:12:19.255Z,3.6
2022-12-08T03:13:27.817Z,3.1
2022-12-08T03:14:36.200Z,3.1
2022-12-08T03:15:44.684Z,3.1
2022-12-08T03:16:53.089Z,4.6
2022-12-08T03:18:01.477Z,4.6
2022-12-08T03:19:09.786Z,4.6
2022-12-08T03:20:18.359Z,4.1
2022-12-08T03:21:26.719Z,4.1
2022-12-08T03:22:35.088Z,4.1
2022-12-08T03:23:43.642Z,5.2
2022-12-08T03:24:51.992Z,5.2
2022-12-08T03:26:00.345Z,5.2
2022-12-08T03:27:08.922Z,6.1
2022-12-08T03:28:17.275Z,6.1
2022-12-08T03:29:25.642Z,6.1
2022-12-08T03:30:34.201Z,5.5
2022-12-08T03:31:42.594Z,5.5
2022-12-08T03:32:50.895Z,5.5
2022-12-08T03:33:59.482Z,7.6
2022-12-08T03:35:07.790Z,7.6
2022-12-08T03:36:16.121Z,7.6
2022-12-08T03:37:24.671Z,7.6
2022-12-08T03:38:33.034Z,7.6
2022-12-08T03:39:41.408Z,7.6
2022-12-08T03:40:49.952Z,7
2022-12-08T03:41:58.285Z,7
2022-12-08T03:43:06.650Z,7
2022-12-08T03:44:15.196Z,6.1
2022-12-08T03:45:23.556Z,6.1
2022-12-08T03:46:31.900Z,6.1
2022-12-08T03:47:40.457Z,5.7
2022-12-08T03:48:48.814Z,5.7
2022-12-08T03:49:57.213Z,5.7
2022-12-08T03:51:05.736Z,6.6
2022-12-08T03:52:14.083Z,6.6
2022-12-08T03:53:22.441Z,6.6
2022-12-08T03:54:30.991Z,6.8
2022-12-08T03:55:39.337Z,6.8
2022-12-08T03:56:47.685Z,6.8
2022-12-08T03:57:56.268Z,6
2022-12-08T03:59:04.600Z,6
2022-12-08T04:00:12.939Z,6
2022-12-08T04:01:21.556Z,6
2022-12-08T04:02:29.950Z,6
2022-12-08T04:03:38.243Z,6
2022-12-08T04:04:46.806Z,5.6
2022-12-08T04:05:55.188Z,5.6
2022-12-08T04:07:03.507Z,5.6
2022-12-08T04:08:12.112Z,5.3
2022-12-08T04:09:20.421Z,5.3
2022-12-08T04:10:28.772Z,5.3
2022-12-08T04:11:37.318Z,5.2
2022-12-08T04:12:45.691Z,5.2
2022-12-08T04:13:54.059Z,5.2
2022-12-08T04:15:02.631Z,6.2
2022-12-08T04:16:11.024Z,6.2
2022-12-08T04:17:19.331Z,6.2
2022-12-08T04:18:27.896Z,5.6
2022-12-08T04:19:36.243Z,5.6
2022-12-08T04:20:44.605Z,5.6
2022-12-08T04:21:53.195Z,5.6
2022-12-08T04:23:01.530Z,5.6
2022-12-08T04:24:09.889Z,5.6
2022-12-08T04:25:18.451Z,6
2022-12-08T04:26:26.784Z,6
2022-12-08T04:27:35.127Z,6
2022-12-08T04:28:43.748Z,5.9
2022-12-08T04:29:52.155Z,5.9
2022-12-08T04:31:00.542Z,5.9
2022-12-08T04:32:09.056Z,6.8
2022-12-08T04:33:17.409Z,6.8
2022-12-08T04:34:25.748Z,6.8
2022-12-08T04:35:34.339Z,5.6
2022-12-08T04:36:42.669Z,5.6
2022-12-08T04:37:51.058Z,5.6
2022-12-08T04:38:59.585Z,6.5
2022-12-08T04:40:08.142Z,6.5
2022-12-08T04:41:16.836Z,6.5
2022-12-08T04:42:25.403Z,5.7
2022-12-08T04:43:33.769Z,5.7
2022-12-08T04:44:42.091Z,5.7
2022-12-08T04:45:50.640Z,6.6
2022-12-08T04:46:59.130Z,6.6
2022-12-08T04:48:07.347Z,6.6
2022-12-08T04:49:15.896Z,8.2
2022-12-08T04:50:24.224Z,8.2
2022-12-08T04:51:32.576Z,8.2
2022-12-08T04:52:41.117Z,8.8
2022-12-08T04:53:49.515Z,8.8
2022-12-08T04:54:57.835Z,8.8
2022-12-08T04:56:06.376Z,9.6
2022-12-08T04:57:14.718Z,9.6
2022-12-08T04:58:23.065Z,9.6
2022-12-08T04:59:31.629Z,9.9
2022-12-08T05:00:39.972Z,9.9
2022-12-08T05:01:48.498Z,9.9
2022-12-08T05:02:56.881Z,10.7
2022-12-08T05:04:05.211Z,10.7
2022-12-08T05:05:13.546Z,10.7
2022-12-08T05:06:22.133Z,10.5
2022-12-08T05:07:30.478Z,10.5
2022-12-08T05:08:38.827Z,10.5
2022-12-08T05:09:47.402Z,10.6
2022-12-08T05:10:55.727Z,10.6
2022-12-08T05:12:04.067Z,10.6
2022-12-08T05:13:12.629Z,11.3
2022-12-08T05:14:20.977Z,11.3
2022-12-08T05:15:29.316Z,11.3
2022-12-08T05:16:37.907Z,11.3
2022-12-08T05:17:46.214Z,11.3
2022-12-08T05:18:54.568Z,11.3
2022-12-08T05:20:03.405Z,12.2
2022-12-08T05:21:11.461Z,12.2
2022-12-08T05:22:19.812Z,12.2
2022-12-08T05:23:28.372Z,11.4
2022-12-08T05:24:36.699Z,11.4
2022-12-08T05:25:45.068Z,11.4
2022-12-08T05:26:53.580Z,10.9
2022-12-08T05:28:32.588Z,10.9
2022-12-08T05:29:10.297Z,10.9
2022-12-08T05:30:18.820Z,12.2
2022-12-08T05:31:27.248Z,12.2
2022-12-08T05:32:35.518Z,12.2
2022-12-08T05:33:44.074Z,12.6
2022-12-08T05:34:52.414Z,12.6
2022-12-08T05:36:00.755Z,12.6
2022-12-08T05:37:09.317Z,12.8
2022-12-08T05:38:17.656Z,12.8
2022-12-08T05:39:26.008Z,12.8
2022-12-08T05:40:34.570Z,12.9
2022-12-08T05:41:42.947Z,12.9
2022-12-08T05:42:51.283Z,12.9
2022-12-08T05:43:59.838Z,13.1
2022-12-08T05:45:08.183Z,13.1
2022-12-08T05:46:16.630Z,13.1
2022-12-08T05:47:25.087Z,13.2
2022-12-08T05:48:33.443Z,13.2
2022-12-08T05:49:41.772Z,13.2
2022-12-08T05:50:50.335Z,15.3
2022-12-08T05:51:58.677Z,15.3
2022-12-08T05:53:07.042Z,15.3
2022-12-08T05:54:15.596Z,13.4
2022-12-08T05:55:23.940Z,13.4
2022-12-08T05:56:32.307Z,13.4
2022-12-08T05:57:40.864Z,14.8
2022-12-08T05:58:49.184Z,14.8
2022-12-08T05:59:57.533Z,14.8
2022-12-08T06:01:06.118Z,14.2
2022-12-08T06:02:14.576Z,14.2
2022-12-08T06:03:22.812Z,14.2
2022-12-08T06:04:31.382Z,16.200001
2022-12-08T06:05:39.726Z,16.200001
2022-12-08T06:06:48.065Z,16.200001
2022-12-08T06:07:56.754Z,18.1
2022-12-08T06:09:05.026Z,18.1
2022-12-08T06:10:13.378Z,18.1
2022-12-08T06:11:21.925Z,16.4
2022-12-08T06:12:30.280Z,16.4
2022-12-08T06:13:38.656Z,16.4
2022-12-08T06:14:47.187Z,21.299999
2022-12-08T06:15:55.539Z,21.299999
2022-12-08T06:17:04.048Z,21.299999
2022-12-08T06:18:12.552Z,15.9
2022-12-08T06:19:21.007Z,15.9
2022-12-08T06:20:29.370Z,15.9
2022-12-08T06:21:38.037Z,14.5
2022-12-08T06:22:46.409Z,14.5
2022-12-08T06:23:54.779Z,14.5
2022-12-08T06:25:06.096Z,13.7
2022-12-08T06:26:11.848Z,13.7
2022-12-08T06:27:20.372Z,13.7
2022-12-08T06:28:28.925Z,27.200001
2022-12-08T06:29:37.329Z,27.200001
2022-12-08T06:30:45.882Z,27.200001
2022-12-08T06:31:54.564Z,12.2
2022-12-08T06:33:02.822Z,12.2
2022-12-08T06:34:11.163Z,12.2
2022-12-08T06:35:19.727Z,14
2022-12-08T06:36:28.077Z,14
2022-12-08T06:37:36.409Z,14
2022-12-08T06:38:45.027Z,24.5
2022-12-08T06:39:53.440Z,24.5
2022-12-08T06:41:01.783Z,24.5
2022-12-08T06:42:10.341Z,16
2022-12-08T06:43:18.726Z,16
2022-12-08T06:44:27.044Z,16
2022-12-08T06:45:35.681Z,19.1
2022-12-08T06:46:43.961Z,19.1
2022-12-08T06:47:52.312Z,19.1
2022-12-08T06:49:00.874Z,15.4
2022-12-08T06:50:09.236Z,15.4
2022-12-08T06:51:17.592Z,15.4
2022-12-08T06:52:26.130Z,13.6
2022-12-08T06:53:34.558Z,13.6
2022-12-08T06:54:42.912Z,13.6
2022-12-08T06:55:59.070Z,14.1
2022-12-08T06:56:59.805Z,14.1
2022-12-08T06:58:08.180Z,14.1
2022-12-08T06:59:16.726Z,13.4
2022-12-08T07:00:25.062Z,13.4
2022-12-08T07:01:33.476Z,13.4
2022-12-08T07:02:41.998Z,14
2022-12-08T07:03:50.323Z,14
2022-12-08T07:04:58.654Z,14
2022-12-08T07:06:07.206Z,12.5
2022-12-08T07:07:15.550Z,12.5
2022-12-08T07:08:23.936Z,12.5
2022-12-08T07:09:32.488Z,13.6
2022-12-08T07:10:40.883Z,13.6
2022-12-08T07:11:49.246Z,13.6
2022-12-08T07:12:57.810Z,12.1
2022-12-08T07:14:06.172Z,12.1
2022-12-08T07:15:14.520Z,12.1
2022-12-08T07:16:23.111Z,12.2
2022-12-08T07:17:31.453Z,12.2
2022-12-08T07:18:39.791Z,12.2
2022-12-08T07:19:48.343Z,12.7
2022-12-08T07:20:56.708Z,12.7
2022-12-08T07:22:05.055Z,12.7
2022-12-08T07:23:13.649Z,12.6
2022-12-08T07:24:22.026Z,12.6
2022-12-08T07:25:30.365Z,12.6
2022-12-08T07:26:38.924Z,15.2
2022-12-08T07:27:47.291Z,15.2
2022-12-08T07:28:55.641Z,15.2
2022-12-08T07:30:04.538Z,12.5
2022-12-08T07:31:12.594Z,12.5
2022-12-08T07:32:20.903Z,12.5
2022-12-08T07:33:29.491Z,14.2
2022-12-08T07:34:37.801Z,14.2
2022-12-08T07:35:49.250Z,14.2
2022-12-08T07:36:54.740Z,15.4
2022-12-08T07:38:03.092Z,15.4
2022-12-08T07:39:11.431Z,15.4
2022-12-08T07:40:19.996Z,14
2022-12-08T07:41:28.337Z,14
2022-12-08T07:42:36.705Z,14
2022-12-08T07:43:45.273Z,16.299999
2022-12-08T07:44:53.627Z,16.299999
2022-12-08T07:46:02.015Z,16.299999
2022-12-08T07:47:10.531Z,14.4
2022-12-08T07:48:18.896Z,14.4
2022-12-08T07:49:27.276Z,14.4
2022-12-08T07:50:35.808Z,13.3
2022-12-08T07:51:44.165Z,13.3
2022-12-08T07:52:52.512Z,13.3
2022-12-08T07:54:01.059Z,16
2022-12-08T07:55:09.410Z,16
2022-12-08T07:56:17.760Z,16
2022-12-08T07:57:26.347Z,14.6
2022-12-08T07:58:34.697Z,14.6
2022-12-08T07:59:43.050Z,14.6
2022-12-08T08:00:51.699Z,16.1
2022-12-08T08:02:21.223Z,16.1
2022-12-08T08:03:08.373Z,16.1
2022-12-08T08:04:16.863Z,18.4
2022-12-08T08:05:25.242Z,18.4
2022-12-08T08:06:33.553Z,18.4
2022-12-08T08:07:42.187Z,17.9
2022-12-08T08:08:50.506Z,17.9
2022-12-08T08:09:58.861Z,17.9
2022-12-08T08:11:13.507Z,17.200001
2022-12-08T08:12:31.111Z,17.200001
2022-12-08T08:13:24.161Z,17.200001
2022-12-08T08:14:32.724Z,16.9
2022-12-08T08:15:41.119Z,16.9
2022-12-08T08:16:49.526Z,16.9
2022-12-08T08:17:57.953Z,16.700001
2022-12-08T08:19:06.295Z,16.700001
2022-12-08T08:20:14.637Z,16.700001
2022-12-08T08:21:47.030Z,14.2
2022-12-08T08:22:31.531Z,14.2
2022-12-08T08:23:39.900Z,14.2
2022-12-08T08:24:48.459Z,14
2022-12-08T08:25:56.811Z,14
2022-12-08T08:27:05.191Z,14
2022-12-08T08:28:13.753Z,16.700001
2022-12-08T08:29:22.100Z,16.700001
2022-12-08T08:30:30.432Z,16.700001
2022-12-08T08:31:39.088Z,14
2022-12-08T08:32:47.331Z,14
2022-12-08T08:33:55.684Z,14
2022-12-08T08:35:04.235Z,14.4
2022-12-08T08:36:12.569Z,14.4
2022-12-08T08:37:20.998Z,14.4
2022-12-08T08:38:29.470Z,14.7
2022-12-08T08:39:37.804Z,14.7
2022-12-08T08:40:46.162Z,14.7
2022-12-08T08:41:54.701Z,13.4
2022-12-08T08:43:03.077Z,13.4
2022-12-08T08:44:11.477Z,13.4
2022-12-08T08:45:20.032Z,13.9
2022-12-08T08:46:28.378Z,13.9
2022-12-08T08:47:36.714Z,13.9
2022-12-08T08:48:45.324Z,13.7
2022-12-08T08:49:53.665Z,13.7
2022-12-08T08:51:02.021Z,13.7
2022-12-08T08:52:10.606Z,14.2
2022-12-08T08:53:18.988Z,14.2
2022-12-08T08:54:27.301Z,14.2
2022-12-08T08:55:35.853Z,15.7
2022-12-08T08:56:44.207Z,15.7
2022-12-08T08:57:52.562Z,15.7
2022-12-08T08:59:01.134Z,14.8
2022-12-08T09:00:09.482Z,14.8
2022-12-08T09:01:17.865Z,14.8
2022-12-08T09:02:26.397Z,14
2022-12-08T09:03:34.746Z,14
2022-12-08T09:04:43.173Z,14
2022-12-08T09:05:51.694Z,16
2022-12-08T09:06:59.995Z,16
2022-12-08T09:08:08.388Z,16
2022-12-08T09:09:16.930Z,24.799999
2022-12-08T09:10:25.279Z,24.799999
2022-12-08T09:11:33.620Z,24.799999
2022-12-08T09:12:42.182Z,13.6
2022-12-08T09:13:50.584Z,13.6
2022-12-08T09:14:58.924Z,13.6
2022-12-08T09:16:07.538Z,15.5
2022-12-08T09:17:15.843Z,15.5
2022-12-08T09:18:24.202Z,15.5
2022-12-08T09:19:32.755Z,12.7
2022-12-08T09:20:41.104Z,12.7
2022-12-08T09:21:49.495Z,12.7
2022-12-08T09:22:58.070Z,14.9
2022-12-08T09:24:06.435Z,14.9
2022-12-08T09:25:14.823Z,14.9
2022-12-08T09:26:23.362Z,16.200001
2022-12-08T09:27:31.733Z,16.200001
2022-12-08T09:28:40.070Z,16.200001
2022-12-08T09:29:48.628Z,12.7
2022-12-08T09:30:57.058Z,12.7
2022-12-08T09:32:05.348Z,12.7
2022-12-08T09:33:13.984Z,15.6
2022-12-08T09:34:22.331Z,15.6
2022-12-08T09:35:30.680Z,15.6
2022-12-08T09:36:39.271Z,20
2022-12-08T09:37:47.605Z,20
2022-12-08T09:38:55.971Z,20
2022-12-08T09:40:04.835Z,15.6
2022-12-08T09:41:12.919Z,15.6
2022-12-08T09:42:21.232Z,15.6
2022-12-08T09:43:29.795Z,15.1
2022-12-08T09:44:38.166Z,15.1
2022-12-08T09:45:46.499Z,15.1
2022-12-08T09:46:55.159Z,18.200001
2022-12-08T09:48:03.499Z,18.200001
2022-12-08T09:49:11.843Z,18.200001
2022-12-08T09:50:20.403Z,19.1
2022-12-08T09:51:28.757Z,19.1
2022-12-08T09:52:37.083Z,19.1
2022-12-08T09:53:45.662Z,15.9
2022-12-08T09:54:54.000Z,15.9
2022-12-08T09:56:02.332Z,15.9
2022-12-08T09:57:10.895Z,15.4
2022-12-08T09:58:19.225Z,15.4
2022-12-08T09:59:27.557Z,15.4
2022-12-08T10:00:36.115Z,17.9
2022-12-08T10:01:44.471Z,17.9
2022-12-08T10:02:52.819Z,17.9
2022-12-08T10:04:01.370Z,20
2022-12-08T10:05:09.760Z,20
2022-12-08T10:06:18.058Z,20
2022-12-08T10:07:26.615Z,17.9
2022-12-08T10:08:35.070Z,17.9
2022-12-08T10:09:43.327Z,17.9
2022-12-08T10:10:51.879Z,15
2022-12-08T10:12:00.219Z,15
2022-12-08T10:13:08.589Z,15
2022-12-08T10:14:17.128Z,31.299999
2022-12-08T10:15:25.456Z,31.299999
2022-12-08T10:16:33.877Z,31.299999
2022-12-08T10:17:42.349Z,15
2022-12-08T10:18:50.722Z,15
2022-12-08T10:19:59.055Z,15
2022-12-08T10:21:07.605Z,14.6
2022-12-08T10:22:15.954Z,14.6
2022-12-08T10:23:24.307Z,14.6
2022-12-08T10:24:32.851Z,21.5
2022-12-08T10:25:41.191Z,21.5
2022-12-08T10:26:49.538Z,21.5
2022-12-08T10:27:58.093Z,30.5
2022-12-08T10:29:06.566Z,30.5
2022-12-08T10:30:14.880Z,30.5
2022-12-08T10:31:23.481Z,15
2022-12-08T10:32:31.777Z,15
2022-12-08T10:33:40.144Z,15
2022-12-08T10:34:52.195Z,18.6
2022-12-08T10:35:57.062Z,18.6
2022-12-08T10:37:05.384Z,18.6
2022-12-08T10:38:13.937Z,15.4
2022-12-08T10:39:22.277Z,15.4
2022-12-08T10:40:30.628Z,15.4
2022-12-08T10:41:39.179Z,13.2
2022-12-08T10:42:47.507Z,13.2
2022-12-08T10:43:55.853Z,13.2
2022-12-08T10:45:04.425Z,16.9
2022-12-08T10:46:12.816Z,16.9
2022-12-08T10:47:21.089Z,16.9
2022-12-08T10:48:29.660Z,106.4
2022-12-08T10:49:37.995Z,106.4
2022-12-08T10:50:46.340Z,106.4
2022-12-08T10:51:54.902Z,42
2022-12-08T10:53:03.262Z,42
2022-12-08T10:54:11.607Z,42
2022-12-08T10:55:20.152Z,16.799999
2022-12-08T10:56:28.497Z,16.799999
2022-12-08T10:57:36.843Z,16.799999
2022-12-08T10:58:45.427Z,14.3
2022-12-08T10:59:53.794Z,14.3
2022-12-08T11:01:02.214Z,14.3
2022-12-08T11:02:10.814Z,11.4
2022-12-08T11:03:19.051Z,11.4
2022-12-08T11:04:27.396Z,11.4
2022-12-08T11:05:35.947Z,12.5
2022-12-08T11:06:44.307Z,12.5
2022-12-08T11:07:52.748Z,12.5
2022-12-08T11:09:01.219Z,13.1
2022-12-08T11:10:09.573Z,13.1
2022-12-08T11:11:17.910Z,13.1
2022-12-08T11:12:26.464Z,12.3
2022-12-08T11:13:34.820Z,12.3
2022-12-08T11:14:43.163Z,12.3
2022-12-08T11:15:51.715Z,13.8
2022-12-08T11:17:00.232Z,13.8
2022-12-08T11:18:08.413Z,13.8
2022-12-08T11:19:16.976Z,14
2022-12-08T11:20:25.326Z,14
2022-12-08T11:21:33.667Z,14
2022-12-08T11:22:42.227Z,13.4
2022-12-08T11:23:50.578Z,13.4
2022-12-08T11:24:58.919Z,13.4
2022-12-08T11:26:07.475Z,12.9
2022-12-08T11:27:15.826Z,12.9
2022-12-08T11:28:24.165Z,12.9
2022-12-08T11:29:32.722Z,12.8
2022-12-08T11:30:41.050Z,12.8
2022-12-08T11:31:49.438Z,12.8
2022-12-08T11:32:57.992Z,14.6
2022-12-08T11:34:06.299Z,14.6
2022-12-08T11:35:14.653Z,14.6
2022-12-08T11:36:23.205Z,12.2
2022-12-08T11:37:34.868Z,12.2
2022-12-08T11:38:39.904Z,12.2
2022-12-08T11:39:48.455Z,12.6
2022-12-08T11:40:56.800Z,12.6
2022-12-08T11:42:05.152Z,12.6
2022-12-08T11:43:13.709Z,10.8
2022-12-08T11:44:22.083Z,10.8
2022-12-08T11:45:30.500Z,10.8
2022-12-08T11:46:38.967Z,11.7
2022-12-08T11:47:50.089Z,11.7
2022-12-08T11:48:55.699Z,11.7
2022-12-08T11:50:04.380Z,11.7
2022-12-08T11:51:12.563Z,11.7
2022-12-08T11:52:20.914Z,11.7
2022-12-08T11:53:29.474Z,8.4
2022-12-08T11:54:37.819Z,8.4
2022-12-08T11:55:48.455Z,8.4
2022-12-08T11:56:54.741Z,10.2
2022-12-08T11:58:03.146Z,10.2
2022-12-08T11:59:11.454Z,10.2
2022-12-08T12:00:20.025Z,7.4
2022-12-08T12:01:28.375Z,7.4
2022-12-08T12:02:36.773Z,7.4
2022-12-08T12:03:45.360Z,9.5
2022-12-08T12:04:53.654Z,9.5
2022-12-08T12:06:18.460Z,9.5
2022-12-08T12:07:10.530Z,7.7
2022-12-08T12:08:18.964Z,7.7
2022-12-08T12:09:27.234Z,7.7
2022-12-08T12:10:35.794Z,8
2022-12-08T12:11:44.153Z,8
2022-12-08T12:12:52.492Z,8
2022-12-08T12:14:01.051Z,7.4
2022-12-08T12:15:09.396Z,7.4
2022-12-08T12:16:17.836Z,7.4
2022-12-08T12:19:22.942Z,6.8
2022-12-08T12:20:31.308Z,6.8
2022-12-08T12:21:39.841Z,7.5
2022-12-08T12:22:48.183Z,7.5
2022-12-08T12:23:56.556Z,7.5
2022-12-08T12:25:05.099Z,6.1
2022-12-08T12:26:13.443Z,6.1
2022-12-08T12:27:21.784Z,6.1
2022-12-08T12:28:30.356Z,6.6
2022-12-08T12:29:38.701Z,6.6
2022-12-08T12:30:47.128Z,6.6
2022-12-08T12:31:55.649Z,7.9
2022-12-08T12:33:03.983Z,7.9
2022-12-08T12:34:12.340Z,7.9
2022-12-08T12:35:25.565Z,7.1
2022-12-08T12:36:29.277Z,7.1
2022-12-08T12:37:37.591Z,7.1
2022-12-08T12:38:46.152Z,6.6
2022-12-08T12:39:54.512Z,6.6
2022-12-08T12:41:02.866Z,6.6
2022-12-08T12:42:11.430Z,7.2
2022-12-08T12:43:19.787Z,7.2
2022-12-08T12:44:28.160Z,7.2
2022-12-08T12:45:36.696Z,7.1
2022-12-08T12:46:45.048Z,7.1
2022-12-08T12:47:56.527Z,7.1
2022-12-08T12:49:01.968Z,8.1
2022-12-08T12:50:10.309Z,8.1
2022-12-08T12:51:18.662Z,8.1
2022-12-08T12:52:27.275Z,5.9
2022-12-08T12:53:35.582Z,5.9
2022-12-08T12:54:44.048Z,5.9
2022-12-08T12:55:52.535Z,5.8
2022-12-08T12:57:00.886Z,5.8
2022-12-08T12:58:09.263Z,5.8
2022-12-08T12:59:17.820Z,6.6
2022-12-08T13:00:26.155Z,6.6
2022-12-08T13:01:34.511Z,6.6
2022-12-08T13:02:43.141Z,6.5
2022-12-08T13:03:51.405Z,6.5
2022-12-08T13:04:59.766Z,6.5
2022-12-08T13:06:12.883Z,6.3
2022-12-08T13:07:16.680Z,6.3
2022-12-08T13:08:25.094Z,6.3
2022-12-08T13:09:33.584Z,7.5
2022-12-08T13:10:41.923Z,7.5
2022-12-08T13:11:50.283Z,7.5
2022-12-08T13:12:58.856Z,7.2
2022-12-08T13:14:07.200Z,7.2
2022-12-08T13:15:15.534Z,7.2
2022-12-08T13:16:24.132Z,6
2022-12-08T13:17:32.432Z,6
2022-12-08T13:18:40.786Z,6
2022-12-08T13:19:51.837Z,7.4
2022-12-08T13:20:57.677Z,7.4
2022-12-08T13:22:06.035Z,7.4
2022-12-08T13:23:14.602Z,6.3
2022-12-08T13:24:22.989Z,6.3
2022-12-08T13:25:35.322Z,6.3
2022-12-08T13:26:39.897Z,5.9
2022-12-08T13:27:48.275Z,5.9
2022-12-08T13:28:56.638Z,5.9
2022-12-08T13:30:05.453Z,6.1
2022-12-08T13:31:13.674Z,6.1
2022-12-08T13:32:21.947Z,6.1
2022-12-08T13:33:30.525Z,5.6
2022-12-08T13:34:38.889Z,5.6
2022-12-08T13:35:47.244Z,5.6
2022-12-08T13:36:55.770Z,5.9
2022-12-08T13:38:04.108Z,5.9
2022-12-08T13:39:12.477Z,5.9
2022-12-08T13:40:21.065Z,5.7
2022-12-08T13:41:29.397Z,5.7
2022-12-08T13:42:37.743Z,5.7
2022-12-08T13:44:02.436Z,5.5
2022-12-08T13:45:20.043Z,5.5
2022-12-08T13:47:33.223Z,5.3
2022-12-08T13:48:30.472Z,5.3
2022-12-08T13:52:16.008Z,7.2
2022-12-08T13:53:34.352Z,7.2
2022-12-08T13:54:56.304Z,5.5
2022-12-08T13:57:27.394Z,5.5
2022-12-08T13:58:35.644Z,5.5
2022-12-08T13:59:43.994Z,5.5
2022-12-08T14:00:52.551Z,5.8
2022-12-08T14:02:00.889Z,5.8
2022-12-08T14:03:09.308Z,5.8
2022-12-08T14:05:40.984Z,5.7
2022-12-08T14:06:34.541Z,5.7
2022-12-08T14:07:44.459Z,5.8
2022-12-08T14:09:05.232Z,5.8
2022-12-08T14:10:01.417Z,5.8
2022-12-08T14:11:09.979Z,5.4
2022-12-08T14:12:18.381Z,5.4
2022-12-08T14:13:26.728Z,5.4
2022-12-08T14:15:02.882Z,6.4
2022-12-08T14:15:43.817Z,6.4
2022-12-08T14:16:52.407Z,6.4
2022-12-08T14:18:00.991Z,6.8
2022-12-08T14:19:09.595Z,6.8
2022-12-08T14:20:17.998Z,6.8
2022-12-08T14:21:30.040Z,6.1
2022-12-08T14:22:35.144Z,6.1
2022-12-08T14:23:43.494Z,6.1
2022-12-08T14:24:52.044Z,7
2022-12-08T14:26:00.399Z,7
2022-12-08T14:27:08.764Z,7
2022-12-08T14:28:17.366Z,7.4
2022-12-08T14:29:25.726Z,7.4
2022-12-08T14:30:34.036Z,7.4
2022-12-08T15:03:37.212Z,0
2022-12-08T15:04:45.688Z,0
2022-12-08T15:05:54.055Z,0
2022-12-08T15:07:02.639Z,8.9
2022-12-08T15:08:11.169Z,8.9
2022-12-08T15:09:19.507Z,8.9
2022-12-08T15:10:28.093Z,7.7
2022-12-08T15:11:36.478Z,7.7
2022-12-08T15:12:44.881Z,7.7
2022-12-08T15:13:53.503Z,8.7
2022-12-08T15:15:01.878Z,8.7
2022-12-08T15:16:10.342Z,8.7
2022-12-08T15:17:18.854Z,7.7
2022-12-08T15:18:27.239Z,7.7
2022-12-08T15:19:35.672Z,7.7
2022-12-08T15:20:44.263Z,7.1
2022-12-08T15:21:52.656Z,7.1
2022-12-08T15:23:01.018Z,7.1
2022-12-08T15:24:09.617Z,8.5
2022-12-08T15:25:18.036Z,8.5
2022-12-08T15:26:26.404Z,8.5
2022-12-08T15:27:43.883Z,8.8
2022-12-08T15:28:43.372Z,8.8
2022-12-08T15:29:51.736Z,8.8
2022-12-08T15:31:00.407Z,7.6
2022-12-08T15:32:08.688Z,7.6
2022-12-08T15:33:17.135Z,7.6
2022-12-08T15:34:25.711Z,7.7
2022-12-08T15:35:38.991Z,7.7
2022-12-08T15:36:42.433Z,7.7
2022-12-08T15:37:50.990Z,7.5
2022-12-08T15:38:59.379Z,7.5
2022-12-08T15:40:08.173Z,7.5
2022-12-08T15:41:16.312Z,7.3
2022-12-08T15:42:24.661Z,7.3
2022-12-08T15:43:33.038Z,7.3
2022-12-08T15:44:41.632Z,9.7
2022-12-08T15:45:58.234Z,9.7
2022-12-08T15:46:58.492Z,9.7
2022-12-08T15:48:06.960Z,9.1
2022-12-08T15:49:15.318Z,9.1
2022-12-08T15:50:23.749Z,9.1
2022-12-08T15:51:32.355Z,6.4
2022-12-08T15:52:40.684Z,6.4
2022-12-08T15:53:51.426Z,6.4
2022-12-08T15:55:00.051Z,8.2
2022-12-08T15:57:19.397Z,8.2
2022-12-08T15:58:55.939Z,9.9
2022-12-08T15:59:33.900Z,9.9
2022-12-08T16:00:58.070Z,9.9
2022-12-08T16:01:50.947Z,8.4
2022-12-08T16:03:28.149Z,8.4
2022-12-08T16:04:47.719Z,8.4
2022-12-08T16:05:41.386Z,8.6
2022-12-08T16:07:33.751Z,8.6
2022-12-08T16:10:17.171Z,9.3
2022-12-08T16:11:48.534Z,9.3
2022-12-08T16:12:57.123Z,8.6